sensor_id;sensor_type;location;lat;lon;timestamp;temperature;humidity
43679;DHT22;29279;50.858;4.392;2023-02-21T00:00:15;9.30;99.90
43679;DHT22;29279;50.858;4.392;2023-02-21T00:02:59;9.30;99.90
43679;DHT22;29279;50.858;4.392;2023-02-21T00:05:43;9.40;99.90
43679;DHT22;29279;50.858;4.392;2023-02-21T00:08:28;9.40;99.90
43679;DHT22;29279;50.858;4.392;2023-02-21T00:11:12;9.50;99.90
43679;DHT22;29279;50.858;4.392;2023-02-21T00:13:56;9.40;99.90
43679;DHT22;29279;50.858;4.392;2023-02-21T00:16:40;9.20;99.90
43679;DHT22;29279;50.858;4.392;2023-02-21T00:19:24;9.20;99.90
43679;DHT22;29279;50.858;4.392;2023-02-21T00:22:08;9.20;99.90
43679;DHT22;29279;50.858;4.392;2023-02-21T00:24:52;9.10;99.90
43679;DHT22;29279;50.858;4.392;2023-02-21T00:27:36;9.10;99.90
43679;DHT22;29279;50.858;4.392;2023-02-21T00:30:20;9.10;99.90
43679;DHT22;29279;50.858;4.392;2023-02-21T00:33:04;9.10;99.90
43679;DHT22;29279;50.858;4.392;2023-02-21T00:35:48;9.10;99.90
43679;DHT22;29279;50.858;4.392;2023-02-21T00:38:32;8.80;99.90
43679;DHT22;29279;50.858;4.392;2023-02-21T00:41:20;8.90;99.90
43679;DHT22;29279;50.858;4.392;2023-02-21T00:44:05;8.90;99.90
43679;DHT22;29279;50.858;4.392;2023-02-21T00:46:50;9.10;99.90
43679;DHT22;29279;50.858;4.392;2023-02-21T00:49:34;9.30;99.90
43679;DHT22;29279;50.858;4.392;2023-02-21T00:52:18;9.40;99.90
43679;DHT22;29279;50.858;4.392;2023-02-21T00:55:02;9.30;99.90
43679;DHT22;29279;50.858;4.392;2023-02-21T00:57:47;9.20;99.90
43679;DHT22;29279;50.858;4.392;2023-02-21T01:00:31;9.20;99.90
43679;DHT22;29279;50.858;4.392;2023-02-21T01:03:15;9.30;99.90
43679;DHT22;29279;50.858;4.392;2023-02-21T01:06:00;9.40;99.90
43679;DHT22;29279;50.858;4.392;2023-02-21T01:08:45;9.40;99.90
43679;DHT22;29279;50.858;4.392;2023-02-21T01:11:31;9.20;99.90
43679;DHT22;29279;50.858;4.392;2023-02-21T01:14:16;9.20;99.90
43679;DHT22;29279;50.858;4.392;2023-02-21T01:17:00;9.10;99.90
43679;DHT22;29279;50.858;4.392;2023-02-21T01:19:45;9.00;99.90
43679;DHT22;29279;50.858;4.392;2023-02-21T01:22:29;8.90;99.90
43679;DHT22;29279;50.858;4.392;2023-02-21T01:25:14;8.80;99.90
43679;DHT22;29279;50.858;4.392;2023-02-21T01:27:59;8.80;99.90
43679;DHT22;29279;50.858;4.392;2023-02-21T01:30:43;8.80;99.90
43679;DHT22;29279;50.858;4.392;2023-02-21T01:33:27;9.00;99.90
43679;DHT22;29279;50.858;4.392;2023-02-21T01:36:11;9.20;99.90
43679;DHT22;29279;50.858;4.392;2023-02-21T01:38:55;9.40;99.90
43679;DHT22;29279;50.858;4.392;2023-02-21T01:41:39;9.30;99.90
43679;DHT22;29279;50.858;4.392;2023-02-21T01:44:31;9.30;99.90
43679;DHT22;29279;50.858;4.392;2023-02-21T01:47:15;9.10;99.90
43679;DHT22;29279;50.858;4.392;2023-02-21T01:50:03;9.00;99.90
43679;DHT22;29279;50.858;4.392;2023-02-21T01:52:48;9.00;99.90
43679;DHT22;29279;50.858;4.392;2023-02-21T01:55:34;9.00;99.90
43679;DHT22;29279;50.858;4.392;2023-02-21T01:58:20;9.00;99.90
43679;DHT22;29279;50.858;4.392;2023-02-21T02:01:07;8.80;99.90
43679;DHT22;29279;50.858;4.392;2023-02-21T02:03:52;8.80;99.90
43679;DHT22;29279;50.858;4.392;2023-02-21T02:06:37;8.70;99.90
43679;DHT22;29279;50.858;4.392;2023-02-21T02:09:21;8.70;99.90
43679;DHT22;29279;50.858;4.392;2023-02-21T02:12:33;8.70;99.90
43679;DHT22;29279;50.858;4.392;2023-02-21T02:17:46;8.60;99.90
43679;DHT22;29279;50.858;4.392;2023-02-21T02:29:08;9.00;99.90
43679;DHT22;29279;50.858;4.392;2023-02-21T02:34:36;8.70;99.90
43679;DHT22;29279;50.858;4.392;2023-02-21T02:39:47;8.90;99.90
43679;DHT22;29279;50.858;4.392;2023-02-21T02:42:39;8.90;99.90
43679;DHT22;29279;50.858;4.392;2023-02-21T02:45:19;9.00;99.90
43679;DHT22;29279;50.858;4.392;2023-02-21T02:47:53;9.10;99.90
43679;DHT22;29279;50.858;4.392;2023-02-21T02:50:20;9.10;99.90
43679;DHT22;29279;50.858;4.392;2023-02-21T02:52:55;9.00;99.90
43679;DHT22;29279;50.858;4.392;2023-02-21T02:55:36;9.10;99.90
43679;DHT22;29279;50.858;4.392;2023-02-21T02:58:03;9.10;99.90
43679;DHT22;29279;50.858;4.392;2023-02-21T03:00:31;9.20;99.90
43679;DHT22;29279;50.858;4.392;2023-02-21T03:11:00;9.20;99.90
43679;DHT22;29279;50.858;4.392;2023-02-21T03:13:44;9.20;99.90
43679;DHT22;29279;50.858;4.392;2023-02-21T03:19:00;9.20;99.90
43679;DHT22;29279;50.858;4.392;2023-02-21T03:21:35;9.20;99.90
43679;DHT22;29279;50.858;4.392;2023-02-21T03:24:03;9.10;99.90
43679;DHT22;29279;50.858;4.392;2023-02-21T03:26:33;9.10;99.90
43679;DHT22;29279;50.858;4.392;2023-02-21T03:29:01;9.10;99.90
43679;DHT22;29279;50.858;4.392;2023-02-21T03:31:36;9.20;99.90
43679;DHT22;29279;50.858;4.392;2023-02-21T03:34:05;9.00;99.90
43679;DHT22;29279;50.858;4.392;2023-02-21T03:36:31;8.90;99.90
43679;DHT22;29279;50.858;4.392;2023-02-21T03:38:57;8.90;99.90
43679;DHT22;29279;50.858;4.392;2023-02-21T03:41:23;9.00;99.90
43679;DHT22;29279;50.858;4.392;2023-02-21T03:43:48;9.00;99.90
43679;DHT22;29279;50.858;4.392;2023-02-21T03:46:14;8.90;99.90
43679;DHT22;29279;50.858;4.392;2023-02-21T03:48:40;8.80;99.90
43679;DHT22;29279;50.858;4.392;2023-02-21T03:51:05;8.70;99.90
43679;DHT22;29279;50.858;4.392;2023-02-21T03:53:31;8.70;99.90
43679;DHT22;29279;50.858;4.392;2023-02-21T03:55:56;8.80;99.90
43679;DHT22;29279;50.858;4.392;2023-02-21T03:58:22;8.80;99.90
43679;DHT22;29279;50.858;4.392;2023-02-21T04:00:48;8.70;99.90
43679;DHT22;29279;50.858;4.392;2023-02-21T04:03:14;8.70;99.90
43679;DHT22;29279;50.858;4.392;2023-02-21T04:05:40;8.70;99.90
43679;DHT22;29279;50.858;4.392;2023-02-21T04:08:06;8.70;99.90
43679;DHT22;29279;50.858;4.392;2023-02-21T04:10:31;8.80;99.90
43679;DHT22;29279;50.858;4.392;2023-02-21T04:12:57;9.00;99.90
43679;DHT22;29279;50.858;4.392;2023-02-21T04:15:23;8.90;99.90
43679;DHT22;29279;50.858;4.392;2023-02-21T04:17:48;8.90;99.90
43679;DHT22;29279;50.858;4.392;2023-02-21T04:20:14;8.90;99.90
43679;DHT22;29279;50.858;4.392;2023-02-21T04:22:40;9.00;99.90
43679;DHT22;29279;50.858;4.392;2023-02-21T04:25:06;9.10;99.90
43679;DHT22;29279;50.858;4.392;2023-02-21T04:27:32;9.10;99.90
43679;DHT22;29279;50.858;4.392;2023-02-21T04:29:59;9.00;99.90
43679;DHT22;29279;50.858;4.392;2023-02-21T04:32:25;8.90;99.90
43679;DHT22;29279;50.858;4.392;2023-02-21T04:34:51;8.80;99.90
43679;DHT22;29279;50.858;4.392;2023-02-21T04:37:17;8.70;99.90
43679;DHT22;29279;50.858;4.392;2023-02-21T04:39:43;8.70;99.90
43679;DHT22;29279;50.858;4.392;2023-02-21T04:42:08;8.70;99.90
43679;DHT22;29279;50.858;4.392;2023-02-21T04:44:35;8.70;99.90
43679;DHT22;29279;50.858;4.392;2023-02-21T04:47:00;8.50;99.90
43679;DHT22;29279;50.858;4.392;2023-02-21T04:49:26;8.40;99.90
43679;DHT22;29279;50.858;4.392;2023-02-21T04:51:53;8.30;99.90
43679;DHT22;29279;50.858;4.392;2023-02-21T04:54:19;8.30;99.90
43679;DHT22;29279;50.858;4.392;2023-02-21T04:56:44;8.40;99.90
43679;DHT22;29279;50.858;4.392;2023-02-21T04:59:10;8.40;99.90
43679;DHT22;29279;50.858;4.392;2023-02-21T05:01:36;8.40;99.90
43679;DHT22;29279;50.858;4.392;2023-02-21T05:04:02;8.40;99.90
43679;DHT22;29279;50.858;4.392;2023-02-21T05:06:29;8.30;99.90
43679;DHT22;29279;50.858;4.392;2023-02-21T05:08:55;8.30;99.90
43679;DHT22;29279;50.858;4.392;2023-02-21T05:11:22;8.50;99.90
43679;DHT22;29279;50.858;4.392;2023-02-21T05:13:48;8.40;99.90
43679;DHT22;29279;50.858;4.392;2023-02-21T05:16:14;8.50;99.90
43679;DHT22;29279;50.858;4.392;2023-02-21T05:18:45;8.60;99.90
43679;DHT22;29279;50.858;4.392;2023-02-21T05:21:11;8.50;99.90
43679;DHT22;29279;50.858;4.392;2023-02-21T05:23:38;8.50;99.90
43679;DHT22;29279;50.858;4.392;2023-02-21T05:26:09;8.50;99.90
43679;DHT22;29279;50.858;4.392;2023-02-21T05:28:35;8.50;99.90
43679;DHT22;29279;50.858;4.392;2023-02-21T05:31:05;8.60;99.90
43679;DHT22;29279;50.858;4.392;2023-02-21T05:33:32;8.60;99.90
43679;DHT22;29279;50.858;4.392;2023-02-21T05:35:58;8.50;99.90
43679;DHT22;29279;50.858;4.392;2023-02-21T05:38:25;8.60;99.90
43679;DHT22;29279;50.858;4.392;2023-02-21T05:40:50;8.60;99.90
43679;DHT22;29279;50.858;4.392;2023-02-21T05:43:16;8.60;99.90
43679;DHT22;29279;50.858;4.392;2023-02-21T05:45:42;8.70;99.90
43679;DHT22;29279;50.858;4.392;2023-02-21T05:48:08;8.80;99.90
43679;DHT22;29279;50.858;4.392;2023-02-21T05:50:33;8.70;99.90
43679;DHT22;29279;50.858;4.392;2023-02-21T05:53:00;8.70;99.90
43679;DHT22;29279;50.858;4.392;2023-02-21T05:55:26;8.60;99.90
43679;DHT22;29279;50.858;4.392;2023-02-21T05:57:52;8.40;99.90
43679;DHT22;29279;50.858;4.392;2023-02-21T06:00:24;8.30;99.90
43679;DHT22;29279;50.858;4.392;2023-02-21T06:02:50;8.30;99.90
43679;DHT22;29279;50.858;4.392;2023-02-21T06:05:17;8.50;99.90
43679;DHT22;29279;50.858;4.392;2023-02-21T06:07:43;8.50;99.90
43679;DHT22;29279;50.858;4.392;2023-02-21T06:10:09;8.50;99.90
43679;DHT22;29279;50.858;4.392;2023-02-21T06:12:35;8.50;99.90
43679;DHT22;29279;50.858;4.392;2023-02-21T06:15:01;8.40;99.90
43679;DHT22;29279;50.858;4.392;2023-02-21T06:17:27;8.30;99.90
43679;DHT22;29279;50.858;4.392;2023-02-21T06:19:55;8.30;99.90
43679;DHT22;29279;50.858;4.392;2023-02-21T06:22:21;8.40;99.90
43679;DHT22;29279;50.858;4.392;2023-02-21T06:24:47;8.60;99.90
43679;DHT22;29279;50.858;4.392;2023-02-21T06:27:12;8.70;99.90
43679;DHT22;29279;50.858;4.392;2023-02-21T06:29:39;8.60;99.90
43679;DHT22;29279;50.858;4.392;2023-02-21T06:32:05;8.50;99.90
43679;DHT22;29279;50.858;4.392;2023-02-21T06:34:31;8.60;99.90
43679;DHT22;29279;50.858;4.392;2023-02-21T06:36:56;8.60;99.90
43679;DHT22;29279;50.858;4.392;2023-02-21T06:39:22;8.60;99.90
43679;DHT22;29279;50.858;4.392;2023-02-21T06:41:49;8.60;99.90
43679;DHT22;29279;50.858;4.392;2023-02-21T06:44:16;8.70;99.90
43679;DHT22;29279;50.858;4.392;2023-02-21T06:46:42;8.50;99.90
43679;DHT22;29279;50.858;4.392;2023-02-21T06:49:08;8.40;99.90
43679;DHT22;29279;50.858;4.392;2023-02-21T06:51:39;8.60;99.90
43679;DHT22;29279;50.858;4.392;2023-02-21T06:54:05;8.60;99.90
43679;DHT22;29279;50.858;4.392;2023-02-21T06:56:32;8.30;99.90
43679;DHT22;29279;50.858;4.392;2023-02-21T06:58:58;8.20;99.90
43679;DHT22;29279;50.858;4.392;2023-02-21T07:01:25;8.10;99.90
43679;DHT22;29279;50.858;4.392;2023-02-21T07:03:52;8.20;99.90
43679;DHT22;29279;50.858;4.392;2023-02-21T07:06:18;8.20;99.90
43679;DHT22;29279;50.858;4.392;2023-02-21T07:08:44;8.20;99.90
43679;DHT22;29279;50.858;4.392;2023-02-21T07:11:09;8.00;99.90
43679;DHT22;29279;50.858;4.392;2023-02-21T07:13:35;8.00;99.90
43679;DHT22;29279;50.858;4.392;2023-02-21T07:16:01;8.00;99.90
43679;DHT22;29279;50.858;4.392;2023-02-21T07:18:27;8.00;99.90
43679;DHT22;29279;50.858;4.392;2023-02-21T07:20:53;8.10;99.90
43679;DHT22;29279;50.858;4.392;2023-02-21T07:23:19;8.10;99.90
43679;DHT22;29279;50.858;4.392;2023-02-21T07:25:46;8.00;99.90
43679;DHT22;29279;50.858;4.392;2023-02-21T07:28:12;8.10;99.90
43679;DHT22;29279;50.858;4.392;2023-02-21T07:30:37;8.00;99.90
43679;DHT22;29279;50.858;4.392;2023-02-21T07:33:03;8.20;99.90
43679;DHT22;29279;50.858;4.392;2023-02-21T07:35:29;8.20;99.90
43679;DHT22;29279;50.858;4.392;2023-02-21T07:37:54;8.30;99.90
43679;DHT22;29279;50.858;4.392;2023-02-21T07:40:20;8.40;99.90
43679;DHT22;29279;50.858;4.392;2023-02-21T07:42:46;8.40;99.90
43679;DHT22;29279;50.858;4.392;2023-02-21T07:45:15;8.30;99.90
43679;DHT22;29279;50.858;4.392;2023-02-21T07:47:41;8.20;99.90
43679;DHT22;29279;50.858;4.392;2023-02-21T07:50:08;8.10;99.90
43679;DHT22;29279;50.858;4.392;2023-02-21T07:52:34;8.20;99.90
43679;DHT22;29279;50.858;4.392;2023-02-21T07:55:00;8.40;99.90
43679;DHT22;29279;50.858;4.392;2023-02-21T07:57:25;8.30;99.90
43679;DHT22;29279;50.858;4.392;2023-02-21T07:59:51;8.30;99.90
43679;DHT22;29279;50.858;4.392;2023-02-21T08:02:17;8.30;99.90
43679;DHT22;29279;50.858;4.392;2023-02-21T08:04:42;8.40;99.90
43679;DHT22;29279;50.858;4.392;2023-02-21T08:07:08;8.40;99.90
43679;DHT22;29279;50.858;4.392;2023-02-21T08:09:35;8.40;99.90
43679;DHT22;29279;50.858;4.392;2023-02-21T08:12:01;8.50;99.90
43679;DHT22;29279;50.858;4.392;2023-02-21T08:14:27;8.50;99.90
43679;DHT22;29279;50.858;4.392;2023-02-21T08:16:53;8.60;99.90
43679;DHT22;29279;50.858;4.392;2023-02-21T08:19:18;8.70;99.90
43679;DHT22;29279;50.858;4.392;2023-02-21T08:21:45;8.80;99.90
43679;DHT22;29279;50.858;4.392;2023-02-21T08:24:12;8.70;99.90
43679;DHT22;29279;50.858;4.392;2023-02-21T08:26:40;8.80;99.90
43679;DHT22;29279;50.858;4.392;2023-02-21T08:29:10;8.80;99.90
43679;DHT22;29279;50.858;4.392;2023-02-21T08:31:39;8.80;99.90
43679;DHT22;29279;50.858;4.392;2023-02-21T08:34:06;8.80;99.90
43679;DHT22;29279;50.858;4.392;2023-02-21T08:36:38;8.80;99.90
43679;DHT22;29279;50.858;4.392;2023-02-21T08:39:05;8.90;99.90
43679;DHT22;29279;50.858;4.392;2023-02-21T08:41:49;8.80;99.90
43679;DHT22;29279;50.858;4.392;2023-02-21T08:44:17;8.80;99.90
43679;DHT22;29279;50.858;4.392;2023-02-21T08:46:43;8.80;99.90
43679;DHT22;29279;50.858;4.392;2023-02-21T08:49:09;8.90;99.90
43679;DHT22;29279;50.858;4.392;2023-02-21T08:51:35;9.00;99.90
43679;DHT22;29279;50.858;4.392;2023-02-21T08:54:01;9.10;99.90
43679;DHT22;29279;50.858;4.392;2023-02-21T08:56:28;9.10;99.90
43679;DHT22;29279;50.858;4.392;2023-02-21T08:58:55;9.00;99.90
43679;DHT22;29279;50.858;4.392;2023-02-21T09:01:22;9.10;99.90
43679;DHT22;29279;50.858;4.392;2023-02-21T09:03:48;9.20;99.90
43679;DHT22;29279;50.858;4.392;2023-02-21T09:06:14;9.30;99.90
43679;DHT22;29279;50.858;4.392;2023-02-21T09:08:40;9.40;99.90
43679;DHT22;29279;50.858;4.392;2023-02-21T09:11:06;9.50;99.90
43679;DHT22;29279;50.858;4.392;2023-02-21T09:13:32;9.50;99.90
43679;DHT22;29279;50.858;4.392;2023-02-21T09:15:59;9.50;99.90
43679;DHT22;29279;50.858;4.392;2023-02-21T09:18:26;9.60;99.90
43679;DHT22;29279;50.858;4.392;2023-02-21T09:20:52;9.70;99.90
43679;DHT22;29279;50.858;4.392;2023-02-21T09:23:19;9.70;99.90
43679;DHT22;29279;50.858;4.392;2023-02-21T09:25:46;9.60;99.90
43679;DHT22;29279;50.858;4.392;2023-02-21T09:28:14;9.70;99.90
43679;DHT22;29279;50.858;4.392;2023-02-21T09:30:40;9.70;99.90
43679;DHT22;29279;50.858;4.392;2023-02-21T09:33:06;9.80;99.90
43679;DHT22;29279;50.858;4.392;2023-02-21T09:35:32;9.70;99.90
43679;DHT22;29279;50.858;4.392;2023-02-21T09:37:58;9.60;99.90
43679;DHT22;29279;50.858;4.392;2023-02-21T09:40:43;9.50;99.90
43679;DHT22;29279;50.858;4.392;2023-02-21T09:48:52;9.30;99.90
43679;DHT22;29279;50.858;4.392;2023-02-21T09:51:18;9.40;99.90
43679;DHT22;29279;50.858;4.392;2023-02-21T09:53:46;9.40;99.90
43679;DHT22;29279;50.858;4.392;2023-02-21T09:56:27;9.60;99.90
43679;DHT22;29279;50.858;4.392;2023-02-21T09:58:55;9.70;99.90
43679;DHT22;29279;50.858;4.392;2023-02-21T10:04:16;9.80;99.90
43679;DHT22;29279;50.858;4.392;2023-02-21T10:06:54;9.80;99.90
43679;DHT22;29279;50.858;4.392;2023-02-21T10:18:15;9.70;99.90
43679;DHT22;29279;50.858;4.392;2023-02-21T10:20:49;9.50;99.90
43679;DHT22;29279;50.858;4.392;2023-02-21T10:23:49;9.50;99.90
43679;DHT22;29279;50.858;4.392;2023-02-21T10:26:22;9.50;99.90
43679;DHT22;29279;50.858;4.392;2023-02-21T10:28:49;9.50;99.90
43679;DHT22;29279;50.858;4.392;2023-02-21T10:31:25;9.40;99.90
43679;DHT22;29279;50.858;4.392;2023-02-21T10:33:54;9.40;99.90
43679;DHT22;29279;50.858;4.392;2023-02-21T10:36:21;9.50;99.90
43679;DHT22;29279;50.858;4.392;2023-02-21T10:41:20;9.40;99.90
43679;DHT22;29279;50.858;4.392;2023-02-21T10:43:49;9.50;99.90
43679;DHT22;29279;50.858;4.392;2023-02-21T10:46:34;9.60;99.90
43679;DHT22;29279;50.858;4.392;2023-02-21T10:51:39;9.70;99.90
43679;DHT22;29279;50.858;4.392;2023-02-21T10:54:23;9.80;99.90
43679;DHT22;29279;50.858;4.392;2023-02-21T10:56:50;9.90;99.90
43679;DHT22;29279;50.858;4.392;2023-02-21T10:59:40;9.90;99.90
43679;DHT22;29279;50.858;4.392;2023-02-21T11:02:29;10.00;99.90
43679;DHT22;29279;50.858;4.392;2023-02-21T11:05:13;10.00;99.90
43679;DHT22;29279;50.858;4.392;2023-02-21T11:07:43;10.00;99.90
43679;DHT22;29279;50.858;4.392;2023-02-21T11:10:31;9.90;99.90
43679;DHT22;29279;50.858;4.392;2023-02-21T11:13:21;10.00;99.90
43679;DHT22;29279;50.858;4.392;2023-02-21T11:15:47;10.10;99.90
43679;DHT22;29279;50.858;4.392;2023-02-21T11:18:24;10.20;99.90
43679;DHT22;29279;50.858;4.392;2023-02-21T11:20:51;10.30;99.90
43679;DHT22;29279;50.858;4.392;2023-02-21T11:25:47;10.40;99.90
43679;DHT22;29279;50.858;4.392;2023-02-21T11:33:20;10.50;99.90
43679;DHT22;29279;50.858;4.392;2023-02-21T11:35:48;10.40;99.90
43679;DHT22;29279;50.858;4.392;2023-02-21T11:38:35;10.40;99.90
43679;DHT22;29279;50.858;4.392;2023-02-21T11:41:25;10.40;99.90
43679;DHT22;29279;50.858;4.392;2023-02-21T11:43:53;10.40;99.90
43679;DHT22;29279;50.858;4.392;2023-02-21T11:46:45;10.50;99.90
43679;DHT22;29279;50.858;4.392;2023-02-21T11:52:00;10.70;99.90
43679;DHT22;29279;50.858;4.392;2023-02-21T11:54:28;10.40;99.90
43679;DHT22;29279;50.858;4.392;2023-02-21T12:21:25;10.30;99.90
43679;DHT22;29279;50.858;4.392;2023-02-21T12:40:27;10.20;99.90
43679;DHT22;29279;50.858;4.392;2023-02-21T12:48:32;10.60;99.90
43679;DHT22;29279;50.858;4.392;2023-02-21T12:51:07;10.70;99.90
43679;DHT22;29279;50.858;4.392;2023-02-21T12:56:31;11.00;99.90
43679;DHT22;29279;50.858;4.392;2023-02-21T12:59:17;11.10;99.90
43679;DHT22;29279;50.858;4.392;2023-02-21T13:01:52;11.10;99.90
43679;DHT22;29279;50.858;4.392;2023-02-21T13:07:59;11.00;99.90
43679;DHT22;29279;50.858;4.392;2023-02-21T13:15:23;11.00;99.90
43679;DHT22;29279;50.858;4.392;2023-02-21T13:23:44;11.30;99.90
43679;DHT22;29279;50.858;4.392;2023-02-21T13:28:58;11.40;99.90
43679;DHT22;29279;50.858;4.392;2023-02-21T13:31:27;11.30;99.90
43679;DHT22;29279;50.858;4.392;2023-02-21T13:34:02;11.30;99.90
43679;DHT22;29279;50.858;4.392;2023-02-21T13:36:31;11.30;99.90
43679;DHT22;29279;50.858;4.392;2023-02-21T13:39:02;11.30;99.90
43679;DHT22;29279;50.858;4.392;2023-02-21T13:41:35;11.20;99.90
43679;DHT22;29279;50.858;4.392;2023-02-21T13:44:29;11.00;99.90
43679;DHT22;29279;50.858;4.392;2023-02-21T13:47:05;11.10;99.90
43679;DHT22;29279;50.858;4.392;2023-02-21T13:49:43;11.10;99.90
43679;DHT22;29279;50.858;4.392;2023-02-21T14:08:25;11.40;99.90
43679;DHT22;29279;50.858;4.392;2023-02-21T14:18:55;11.20;99.90
43679;DHT22;29279;50.858;4.392;2023-02-21T14:24:12;11.20;99.90
43679;DHT22;29279;50.858;4.392;2023-02-21T14:26:52;11.30;99.90
43679;DHT22;29279;50.858;4.392;2023-02-21T14:43:05;11.40;99.90
43679;DHT22;29279;50.858;4.392;2023-02-21T14:51:09;11.50;99.90
43679;DHT22;29279;50.858;4.392;2023-02-21T15:01:45;11.50;99.90
43679;DHT22;29279;50.858;4.392;2023-02-21T15:04:14;11.50;99.90
43679;DHT22;29279;50.858;4.392;2023-02-21T15:06:45;11.50;99.90
43679;DHT22;29279;50.858;4.392;2023-02-21T15:09:19;11.40;99.90
43679;DHT22;29279;50.858;4.392;2023-02-21T15:11:46;11.50;99.90
43679;DHT22;29279;50.858;4.392;2023-02-21T15:16:43;11.30;99.90
43679;DHT22;29279;50.858;4.392;2023-02-21T15:19:20;11.40;99.90
43679;DHT22;29279;50.858;4.392;2023-02-21T15:21:46;11.20;99.90
43679;DHT22;29279;50.858;4.392;2023-02-21T15:24:14;11.00;99.90
43679;DHT22;29279;50.858;4.392;2023-02-21T15:26:40;11.10;99.90
43679;DHT22;29279;50.858;4.392;2023-02-21T15:29:14;11.00;99.90
43679;DHT22;29279;50.858;4.392;2023-02-21T15:31:54;11.10;99.90
43679;DHT22;29279;50.858;4.392;2023-02-21T15:34:38;11.20;99.90
43679;DHT22;29279;50.858;4.392;2023-02-21T15:37:27;11.30;99.90
43679;DHT22;29279;50.858;4.392;2023-02-21T15:40:04;11.30;99.90
43679;DHT22;29279;50.858;4.392;2023-02-21T15:42:38;11.20;99.90
43679;DHT22;29279;50.858;4.392;2023-02-21T15:45:08;11.00;99.90
43679;DHT22;29279;50.858;4.392;2023-02-21T15:47:36;11.00;99.90
43679;DHT22;29279;50.858;4.392;2023-02-21T15:50:06;11.00;99.90
43679;DHT22;29279;50.858;4.392;2023-02-21T15:52:40;11.10;99.90
43679;DHT22;29279;50.858;4.392;2023-02-21T16:02:50;11.30;99.90
43679;DHT22;29279;50.858;4.392;2023-02-21T16:05:27;11.30;99.90
43679;DHT22;29279;50.858;4.392;2023-02-21T16:07:59;11.40;99.90
43679;DHT22;29279;50.858;4.392;2023-02-21T16:10:26;11.30;99.90
43679;DHT22;29279;50.858;4.392;2023-02-21T16:12:57;11.30;99.90
43679;DHT22;29279;50.858;4.392;2023-02-21T16:15:32;11.40;99.90
43679;DHT22;29279;50.858;4.392;2023-02-21T16:18:05;11.40;99.90
43679;DHT22;29279;50.858;4.392;2023-02-21T16:20:36;11.40;99.90
43679;DHT22;29279;50.858;4.392;2023-02-21T16:25:56;11.40;99.90
43679;DHT22;29279;50.858;4.392;2023-02-21T16:28:22;11.40;99.90
43679;DHT22;29279;50.858;4.392;2023-02-21T16:30:48;11.40;99.90
43679;DHT22;29279;50.858;4.392;2023-02-21T16:33:14;11.40;99.90
43679;DHT22;29279;50.858;4.392;2023-02-21T16:35:40;11.40;99.90
43679;DHT22;29279;50.858;4.392;2023-02-21T16:38:11;11.40;99.90
43679;DHT22;29279;50.858;4.392;2023-02-21T16:40:37;11.40;99.90
43679;DHT22;29279;50.858;4.392;2023-02-21T16:43:04;11.40;99.90
43679;DHT22;29279;50.858;4.392;2023-02-21T16:45:30;11.40;99.90
43679;DHT22;29279;50.858;4.392;2023-02-21T16:47:58;11.40;99.90
43679;DHT22;29279;50.858;4.392;2023-02-21T16:50:36;11.30;99.90
43679;DHT22;29279;50.858;4.392;2023-02-21T16:53:02;11.30;99.90
43679;DHT22;29279;50.858;4.392;2023-02-21T16:55:28;11.20;99.90
43679;DHT22;29279;50.858;4.392;2023-02-21T16:58:00;11.10;99.90
43679;DHT22;29279;50.858;4.392;2023-02-21T17:00:27;11.00;99.90
43679;DHT22;29279;50.858;4.392;2023-02-21T17:02:53;10.90;99.90
43679;DHT22;29279;50.858;4.392;2023-02-21T17:05:20;10.90;99.90
43679;DHT22;29279;50.858;4.392;2023-02-21T17:07:50;10.80;99.90
43679;DHT22;29279;50.858;4.392;2023-02-21T17:10:18;10.70;99.90
43679;DHT22;29279;50.858;4.392;2023-02-21T17:12:44;10.60;99.90
43679;DHT22;29279;50.858;4.392;2023-02-21T17:15:10;10.60;99.90
43679;DHT22;29279;50.858;4.392;2023-02-21T17:17:37;10.50;99.90
43679;DHT22;29279;50.858;4.392;2023-02-21T17:20:04;10.40;99.90
43679;DHT22;29279;50.858;4.392;2023-02-21T17:22:30;10.40;99.90
43679;DHT22;29279;50.858;4.392;2023-02-21T17:24:55;10.30;99.90
43679;DHT22;29279;50.858;4.392;2023-02-21T17:27:21;10.30;99.90
43679;DHT22;29279;50.858;4.392;2023-02-21T17:29:47;10.30;99.90
43679;DHT22;29279;50.858;4.392;2023-02-21T17:32:13;10.20;99.90
43679;DHT22;29279;50.858;4.392;2023-02-21T17:34:41;10.20;99.90
43679;DHT22;29279;50.858;4.392;2023-02-21T17:37:07;10.10;99.90
43679;DHT22;29279;50.858;4.392;2023-02-21T17:39:34;10.10;99.90
43679;DHT22;29279;50.858;4.392;2023-02-21T17:42:01;10.10;99.90
43679;DHT22;29279;50.858;4.392;2023-02-21T17:44:26;10.00;99.90
43679;DHT22;29279;50.858;4.392;2023-02-21T17:46:54;10.00;99.90
43679;DHT22;29279;50.858;4.392;2023-02-21T17:49:22;10.00;99.90
43679;DHT22;29279;50.858;4.392;2023-02-21T17:51:49;9.90;99.90
43679;DHT22;29279;50.858;4.392;2023-02-21T17:54:21;9.90;99.90
43679;DHT22;29279;50.858;4.392;2023-02-21T17:56:47;9.80;99.90
43679;DHT22;29279;50.858;4.392;2023-02-21T17:59:13;9.80;99.90
43679;DHT22;29279;50.858;4.392;2023-02-21T18:01:39;9.80;99.90
43679;DHT22;29279;50.858;4.392;2023-02-21T18:04:06;9.70;99.90
43679;DHT22;29279;50.858;4.392;2023-02-21T18:06:32;9.70;99.90
43679;DHT22;29279;50.858;4.392;2023-02-21T18:08:58;9.70;99.90
43679;DHT22;29279;50.858;4.392;2023-02-21T18:11:25;9.70;99.90
43679;DHT22;29279;50.858;4.392;2023-02-21T18:13:51;9.70;99.90
43679;DHT22;29279;50.858;4.392;2023-02-21T18:16:17;9.60;99.90
43679;DHT22;29279;50.858;4.392;2023-02-21T18:18:43;9.60;99.90
43679;DHT22;29279;50.858;4.392;2023-02-21T18:21:09;9.60;99.90
43679;DHT22;29279;50.858;4.392;2023-02-21T18:23:35;9.60;99.90
43679;DHT22;29279;50.858;4.392;2023-02-21T18:26:03;9.60;99.90
43679;DHT22;29279;50.858;4.392;2023-02-21T18:28:29;9.60;99.90
43679;DHT22;29279;50.858;4.392;2023-02-21T18:30:55;9.60;99.90
43679;DHT22;29279;50.858;4.392;2023-02-21T18:33:23;9.50;99.90
43679;DHT22;29279;50.858;4.392;2023-02-21T18:35:55;9.50;99.90
43679;DHT22;29279;50.858;4.392;2023-02-21T18:38:22;9.50;99.90
43679;DHT22;29279;50.858;4.392;2023-02-21T18:40:48;9.50;99.90
43679;DHT22;29279;50.858;4.392;2023-02-21T18:45:45;9.50;99.90
43679;DHT22;29279;50.858;4.392;2023-02-21T18:48:11;9.20;99.90
43679;DHT22;29279;50.858;4.392;2023-02-21T18:50:37;9.10;99.90
43679;DHT22;29279;50.858;4.392;2023-02-21T18:53:02;9.20;99.90
43679;DHT22;29279;50.858;4.392;2023-02-21T18:55:30;9.30;99.90
43679;DHT22;29279;50.858;4.392;2023-02-21T18:57:55;9.10;99.90
43679;DHT22;29279;50.858;4.392;2023-02-21T19:00:23;9.10;99.90
43679;DHT22;29279;50.858;4.392;2023-02-21T19:02:49;8.70;99.90
43679;DHT22;29279;50.858;4.392;2023-02-21T19:05:16;8.70;99.90
43679;DHT22;29279;50.858;4.392;2023-02-21T19:07:42;8.70;99.90
43679;DHT22;29279;50.858;4.392;2023-02-21T19:10:15;8.70;99.90
43679;DHT22;29279;50.858;4.392;2023-02-21T19:12:42;8.70;99.90
43679;DHT22;29279;50.858;4.392;2023-02-21T19:15:08;8.60;99.90
43679;DHT22;29279;50.858;4.392;2023-02-21T19:17:34;8.60;99.90
43679;DHT22;29279;50.858;4.392;2023-02-21T19:20:00;8.70;99.90
43679;DHT22;29279;50.858;4.392;2023-02-21T19:22:26;8.80;99.90